sensor_id;sensor_type;location;lat;lon;timestamp;temperature;humidity
80176;DHT22;69501;42.124;24.722;2023-08-01T00:00:12;28.50;40.30
80176;DHT22;69501;42.124;24.722;2023-08-01T00:02:38;28.50;40.00
80176;DHT22;69501;42.124;24.722;2023-08-01T00:05:04;28.50;39.80
80176;DHT22;69501;42.124;24.722;2023-08-01T00:07:30;28.50;40.10
80176;DHT22;69501;42.124;24.722;2023-08-01T00:09:56;28.50;40.10
80176;DHT22;69501;42.124;24.722;2023-08-01T00:12:23;28.50;40.00
80176;DHT22;69501;42.124;24.722;2023-08-01T00:14:49;28.50;40.10
80176;DHT22;69501;42.124;24.722;2023-08-01T00:17:14;28.50;40.00
80176;DHT22;69501;42.124;24.722;2023-08-01T00:19:40;28.60;40.10
80176;DHT22;69501;42.124;24.722;2023-08-01T00:22:06;28.50;39.50
80176;DHT22;69501;42.124;24.722;2023-08-01T00:24:31;28.50;40.00
80176;DHT22;69501;42.124;24.722;2023-08-01T00:26:57;28.60;39.90
80176;DHT22;69501;42.124;24.722;2023-08-01T00:29:23;28.60;39.80
80176;DHT22;69501;42.124;24.722;2023-08-01T00:31:49;28.40;40.00
80176;DHT22;69501;42.124;24.722;2023-08-01T00:34:14;28.50;40.10
80176;DHT22;69501;42.124;24.722;2023-08-01T00:36:40;28.20;39.40
80176;DHT22;69501;42.124;24.722;2023-08-01T00:39:06;28.00;39.70
80176;DHT22;69501;42.124;24.722;2023-08-01T00:41:31;27.90;40.10
80176;DHT22;69501;42.124;24.722;2023-08-01T00:43:57;27.90;39.70
80176;DHT22;69501;42.124;24.722;2023-08-01T00:46:23;27.90;39.40
80176;DHT22;69501;42.124;24.722;2023-08-01T00:48:50;27.80;39.10
80176;DHT22;69501;42.124;24.722;2023-08-01T00:51:16;27.80;39.60
80176;DHT22;69501;42.124;24.722;2023-08-01T00:53:43;27.80;39.10
80176;DHT22;69501;42.124;24.722;2023-08-01T00:56:10;27.80;38.50
80176;DHT22;69501;42.124;24.722;2023-08-01T00:58:36;27.80;38.50
80176;DHT22;69501;42.124;24.722;2023-08-01T01:01:02;27.60;38.60
80176;DHT22;69501;42.124;24.722;2023-08-01T01:03:29;27.70;39.00
80176;DHT22;69501;42.124;24.722;2023-08-01T01:06:14;27.80;38.90
80176;DHT22;69501;42.124;24.722;2023-08-01T01:08:43;27.80;38.80
80176;DHT22;69501;42.124;24.722;2023-08-01T01:11:09;27.90;38.80
80176;DHT22;69501;42.124;24.722;2023-08-01T01:13:34;28.00;38.80
80176;DHT22;69501;42.124;24.722;2023-08-01T01:16:00;28.00;39.10
80176;DHT22;69501;42.124;24.722;2023-08-01T01:18:26;28.00;39.20
80176;DHT22;69501;42.124;24.722;2023-08-01T01:20:52;27.90;39.60
80176;DHT22;69501;42.124;24.722;2023-08-01T01:23:18;27.70;38.20
80176;DHT22;69501;42.124;24.722;2023-08-01T01:25:45;27.60;39.40
80176;DHT22;69501;42.124;24.722;2023-08-01T01:28:12;27.50;39.30
80176;DHT22;69501;42.124;24.722;2023-08-01T01:30:38;27.40;39.60
80176;DHT22;69501;42.124;24.722;2023-08-01T01:33:05;27.40;39.70
80176;DHT22;69501;42.124;24.722;2023-08-01T01:35:33;27.20;39.00
80176;DHT22;69501;42.124;24.722;2023-08-01T01:38:00;27.30;39.30
80176;DHT22;69501;42.124;24.722;2023-08-01T01:40:32;27.30;39.20
80176;DHT22;69501;42.124;24.722;2023-08-01T01:42:59;27.30;39.20
80176;DHT22;69501;42.124;24.722;2023-08-01T01:45:26;27.20;39.20
80176;DHT22;69501;42.124;24.722;2023-08-01T01:47:52;27.20;39.60
80176;DHT22;69501;42.124;24.722;2023-08-01T01:50:17;27.10;39.50
80176;DHT22;69501;42.124;24.722;2023-08-01T01:52:44;27.20;39.70
80176;DHT22;69501;42.124;24.722;2023-08-01T01:55:09;27.10;39.80
80176;DHT22;69501;42.124;24.722;2023-08-01T01:57:35;27.20;39.80
80176;DHT22;69501;42.124;24.722;2023-08-01T02:00:05;27.30;40.00
80176;DHT22;69501;42.124;24.722;2023-08-01T02:02:31;27.30;40.20
80176;DHT22;69501;42.124;24.722;2023-08-01T02:04:57;27.30;39.60
80176;DHT22;69501;42.124;24.722;2023-08-01T02:07:22;27.30;39.60
80176;DHT22;69501;42.124;24.722;2023-08-01T02:09:48;27.30;39.70
80176;DHT22;69501;42.124;24.722;2023-08-01T02:12:13;27.40;40.30
80176;DHT22;69501;42.124;24.722;2023-08-01T02:14:40;27.40;40.50
80176;DHT22;69501;42.124;24.722;2023-08-01T02:17:06;27.40;40.20
80176;DHT22;69501;42.124;24.722;2023-08-01T02:19:32;27.40;40.20
80176;DHT22;69501;42.124;24.722;2023-08-01T02:21:58;27.50;40.10
80176;DHT22;69501;42.124;24.722;2023-08-01T02:24:24;27.50;39.90
80176;DHT22;69501;42.124;24.722;2023-08-01T02:26:50;27.50;39.60
80176;DHT22;69501;42.124;24.722;2023-08-01T02:29:16;27.50;39.60
80176;DHT22;69501;42.124;24.722;2023-08-01T02:31:41;27.60;39.50
80176;DHT22;69501;42.124;24.722;2023-08-01T02:34:07;27.60;39.50
80176;DHT22;69501;42.124;24.722;2023-08-01T02:36:33;27.60;39.10
80176;DHT22;69501;42.124;24.722;2023-08-01T02:38:58;27.60;39.30
80176;DHT22;69501;42.124;24.722;2023-08-01T02:41:24;27.60;39.30
80176;DHT22;69501;42.124;24.722;2023-08-01T02:43:50;27.60;39.20
80176;DHT22;69501;42.124;24.722;2023-08-01T02:46:15;27.60;39.50
80176;DHT22;69501;42.124;24.722;2023-08-01T02:48:41;27.60;39.40
80176;DHT22;69501;42.124;24.722;2023-08-01T02:51:07;27.60;39.40
80176;DHT22;69501;42.124;24.722;2023-08-01T02:53:35;27.50;39.50
80176;DHT22;69501;42.124;24.722;2023-08-01T02:56:01;27.40;39.50
80176;DHT22;69501;42.124;24.722;2023-08-01T02:58:27;27.40;39.60
80176;DHT22;69501;42.124;24.722;2023-08-01T03:00:52;27.50;39.80
80176;DHT22;69501;42.124;24.722;2023-08-01T03:03:18;27.50;39.60
80176;DHT22;69501;42.124;24.722;2023-08-01T03:05:44;27.50;39.70
80176;DHT22;69501;42.124;24.722;2023-08-01T03:08:09;27.40;39.80
80176;DHT22;69501;42.124;24.722;2023-08-01T03:10:35;27.50;39.80
80176;DHT22;69501;42.124;24.722;2023-08-01T03:13:01;27.50;39.90
80176;DHT22;69501;42.124;24.722;2023-08-01T03:15:27;27.50;39.90
80176;DHT22;69501;42.124;24.722;2023-08-01T03:17:53;27.40;40.10
80176;DHT22;69501;42.124;24.722;2023-08-01T03:20:19;27.30;40.40
80176;DHT22;69501;42.124;24.722;2023-08-01T03:22:44;27.30;40.60
80176;DHT22;69501;42.124;24.722;2023-08-01T03:25:10;27.30;41.00
80176;DHT22;69501;42.124;24.722;2023-08-01T03:27:36;27.20;40.60
80176;DHT22;69501;42.124;24.722;2023-08-01T03:30:03;27.10;40.90
80176;DHT22;69501;42.124;24.722;2023-08-01T03:32:35;27.00;41.00
80176;DHT22;69501;42.124;24.722;2023-08-01T03:35:00;27.00;41.40
80176;DHT22;69501;42.124;24.722;2023-08-01T03:37:26;26.90;41.40
80176;DHT22;69501;42.124;24.722;2023-08-01T03:39:52;26.80;41.70
80176;DHT22;69501;42.124;24.722;2023-08-01T03:42:17;26.70;41.80
80176;DHT22;69501;42.124;24.722;2023-08-01T03:44:43;26.70;41.80
80176;DHT22;69501;42.124;24.722;2023-08-01T03:47:08;26.50;42.50
80176;DHT22;69501;42.124;24.722;2023-08-01T03:49:34;26.40;43.10
80176;DHT22;69501;42.124;24.722;2023-08-01T03:52:00;26.40;43.10
80176;DHT22;69501;42.124;24.722;2023-08-01T03:54:26;26.40;43.30
80176;DHT22;69501;42.124;24.722;2023-08-01T03:56:52;26.40;43.10
80176;DHT22;69501;42.124;24.722;2023-08-01T03:59:18;26.40;42.80
80176;DHT22;69501;42.124;24.722;2023-08-01T04:01:43;26.30;42.70
80176;DHT22;69501;42.124;24.722;2023-08-01T04:04:09;26.30;42.80
80176;DHT22;69501;42.124;24.722;2023-08-01T04:06:35;26.30;42.80
80176;DHT22;69501;42.124;24.722;2023-08-01T04:09:01;26.30;43.30
80176;DHT22;69501;42.124;24.722;2023-08-01T04:11:27;26.20;43.00
80176;DHT22;69501;42.124;24.722;2023-08-01T04:13:53;26.20;43.40
80176;DHT22;69501;42.124;24.722;2023-08-01T04:16:19;26.20;43.20
80176;DHT22;69501;42.124;24.722;2023-08-01T04:18:45;26.10;43.10
80176;DHT22;69501;42.124;24.722;2023-08-01T04:21:13;26.10;42.80
80176;DHT22;69501;42.124;24.722;2023-08-01T04:23:39;26.20;43.60
80176;DHT22;69501;42.124;24.722;2023-08-01T04:26:04;26.30;43.80
80176;DHT22;69501;42.124;24.722;2023-08-01T04:28:32;26.30;43.50
80176;DHT22;69501;42.124;24.722;2023-08-01T04:30:57;26.40;43.30
80176;DHT22;69501;42.124;24.722;2023-08-01T04:33:23;26.40;43.40
80176;DHT22;69501;42.124;24.722;2023-08-01T04:35:49;26.50;43.10
80176;DHT22;69501;42.124;24.722;2023-08-01T04:38:15;26.50;43.20
80176;DHT22;69501;42.124;24.722;2023-08-01T04:40:43;26.60;42.90
80176;DHT22;69501;42.124;24.722;2023-08-01T04:43:09;26.60;43.20
80176;DHT22;69501;42.124;24.722;2023-08-01T04:45:36;26.70;43.30
80176;DHT22;69501;42.124;24.722;2023-08-01T04:48:02;26.70;43.20
80176;DHT22;69501;42.124;24.722;2023-08-01T04:50:27;26.80;43.00
80176;DHT22;69501;42.124;24.722;2023-08-01T04:52:53;26.90;43.00
80176;DHT22;69501;42.124;24.722;2023-08-01T04:55:19;27.00;43.20
80176;DHT22;69501;42.124;24.722;2023-08-01T04:57:44;27.10;43.20
80176;DHT22;69501;42.124;24.722;2023-08-01T05:00:11;27.20;42.50
80176;DHT22;69501;42.124;24.722;2023-08-01T05:02:37;27.30;42.30
80176;DHT22;69501;42.124;24.722;2023-08-01T05:05:03;27.30;42.30
80176;DHT22;69501;42.124;24.722;2023-08-01T05:07:29;27.30;42.10
80176;DHT22;69501;42.124;24.722;2023-08-01T05:09:55;27.30;42.20
80176;DHT22;69501;42.124;24.722;2023-08-01T05:12:21;27.30;42.10
80176;DHT22;69501;42.124;24.722;2023-08-01T05:14:47;27.30;42.30
80176;DHT22;69501;42.124;24.722;2023-08-01T05:17:12;27.30;42.00
80176;DHT22;69501;42.124;24.722;2023-08-01T05:19:38;27.40;42.20
80176;DHT22;69501;42.124;24.722;2023-08-01T05:22:04;27.40;41.90
80176;DHT22;69501;42.124;24.722;2023-08-01T05:24:30;27.40;41.80
80176;DHT22;69501;42.124;24.722;2023-08-01T05:26:55;27.50;41.70
80176;DHT22;69501;42.124;24.722;2023-08-01T05:29:21;27.50;41.70
80176;DHT22;69501;42.124;24.722;2023-08-01T05:31:47;27.50;41.30
80176;DHT22;69501;42.124;24.722;2023-08-01T05:34:12;27.40;40.60
80176;DHT22;69501;42.124;24.722;2023-08-01T05:36:38;27.40;40.90
80176;DHT22;69501;42.124;24.722;2023-08-01T05:39:04;27.50;41.40
80176;DHT22;69501;42.124;24.722;2023-08-01T05:41:29;27.60;41.30
80176;DHT22;69501;42.124;24.722;2023-08-01T05:43:56;27.70;41.30
80176;DHT22;69501;42.124;24.722;2023-08-01T05:46:22;27.80;41.00
80176;DHT22;69501;42.124;24.722;2023-08-01T05:48:47;27.70;40.90
80176;DHT22;69501;42.124;24.722;2023-08-01T05:51:13;27.80;41.10
80176;DHT22;69501;42.124;24.722;2023-08-01T05:53:38;27.80;41.10
80176;DHT22;69501;42.124;24.722;2023-08-01T05:56:04;27.90;41.20
80176;DHT22;69501;42.124;24.722;2023-08-01T05:58:30;28.00;41.10
80176;DHT22;69501;42.124;24.722;2023-08-01T06:00:56;28.20;40.80
80176;DHT22;69501;42.124;24.722;2023-08-01T06:03:22;28.20;40.40
80176;DHT22;69501;42.124;24.722;2023-08-01T06:05:48;28.30;39.90
80176;DHT22;69501;42.124;24.722;2023-08-01T06:08:13;28.50;41.30
80176;DHT22;69501;42.124;24.722;2023-08-01T06:10:41;28.60;40.00
80176;DHT22;69501;42.124;24.722;2023-08-01T06:13:07;28.60;38.60
80176;DHT22;69501;42.124;24.722;2023-08-01T06:15:32;28.60;39.20
80176;DHT22;69501;42.124;24.722;2023-08-01T06:17:58;28.80;39.40
80176;DHT22;69501;42.124;24.722;2023-08-01T06:20:24;28.80;38.60
80176;DHT22;69501;42.124;24.722;2023-08-01T06:22:50;28.80;37.80
80176;DHT22;69501;42.124;24.722;2023-08-01T06:25:18;28.90;38.30
80176;DHT22;69501;42.124;24.722;2023-08-01T06:27:44;28.80;36.90
80176;DHT22;69501;42.124;24.722;2023-08-01T06:30:10;28.90;37.40
80176;DHT22;69501;42.124;24.722;2023-08-01T06:32:36;28.90;36.10
80176;DHT22;69501;42.124;24.722;2023-08-01T06:35:01;29.00;36.50
80176;DHT22;69501;42.124;24.722;2023-08-01T06:37:27;29.00;35.80
80176;DHT22;69501;42.124;24.722;2023-08-01T06:39:54;29.10;36.10
80176;DHT22;69501;42.124;24.722;2023-08-01T06:42:21;29.30;36.20
80176;DHT22;69501;42.124;24.722;2023-08-01T06:44:47;29.40;35.40
80176;DHT22;69501;42.124;24.722;2023-08-01T06:47:12;29.40;34.30
80176;DHT22;69501;42.124;24.722;2023-08-01T06:49:38;29.40;34.90
80176;DHT22;69501;42.124;24.722;2023-08-01T06:52:04;29.50;34.80
80176;DHT22;69501;42.124;24.722;2023-08-01T06:54:31;29.60;34.70
80176;DHT22;69501;42.124;24.722;2023-08-01T06:56:57;29.60;33.90
80176;DHT22;69501;42.124;24.722;2023-08-01T06:59:24;29.30;33.70
80176;DHT22;69501;42.124;24.722;2023-08-01T07:01:50;29.30;33.90
80176;DHT22;69501;42.124;24.722;2023-08-01T07:04:15;29.40;33.70
80176;DHT22;69501;42.124;24.722;2023-08-01T07:06:41;29.50;33.60
80176;DHT22;69501;42.124;24.722;2023-08-01T07:09:07;29.60;34.10
80176;DHT22;69501;42.124;24.722;2023-08-01T07:11:32;29.70;33.20
80176;DHT22;69501;42.124;24.722;2023-08-01T07:13:58;29.80;32.90
80176;DHT22;69501;42.124;24.722;2023-08-01T07:16:24;29.90;32.10
80176;DHT22;69501;42.124;24.722;2023-08-01T07:18:50;29.90;32.80
80176;DHT22;69501;42.124;24.722;2023-08-01T07:21:16;30.10;31.90
80176;DHT22;69501;42.124;24.722;2023-08-01T07:23:43;29.80;30.80
80176;DHT22;69501;42.124;24.722;2023-08-01T07:26:09;29.90;31.70
80176;DHT22;69501;42.124;24.722;2023-08-01T07:28:35;30.00;32.00
80176;DHT22;69501;42.124;24.722;2023-08-01T07:31:07;30.10;32.20
80176;DHT22;69501;42.124;24.722;2023-08-01T07:33:33;30.20;31.10
80176;DHT22;69501;42.124;24.722;2023-08-01T07:35:59;30.20;30.50
80176;DHT22;69501;42.124;24.722;2023-08-01T07:38:25;30.30;30.10
80176;DHT22;69501;42.124;24.722;2023-08-01T07:40:52;30.30;30.10
80176;DHT22;69501;42.124;24.722;2023-08-01T07:43:18;30.40;30.00
80176;DHT22;69501;42.124;24.722;2023-08-01T07:45:45;30.40;30.00
80176;DHT22;69501;42.124;24.722;2023-08-01T07:48:10;30.50;29.80
80176;DHT22;69501;42.124;24.722;2023-08-01T07:50:36;30.50;30.40
80176;DHT22;69501;42.124;24.722;2023-08-01T07:53:02;30.50;29.50
80176;DHT22;69501;42.124;24.722;2023-08-01T07:55:27;30.60;29.60
80176;DHT22;69501;42.124;24.722;2023-08-01T07:57:53;30.60;29.60
80176;DHT22;69501;42.124;24.722;2023-08-01T08:00:19;30.60;29.70
80176;DHT22;69501;42.124;24.722;2023-08-01T08:02:45;30.60;29.70
80176;DHT22;69501;42.124;24.722;2023-08-01T08:05:11;30.70;29.80
80176;DHT22;69501;42.124;24.722;2023-08-01T08:07:37;30.70;29.80
80176;DHT22;69501;42.124;24.722;2023-08-01T08:10:04;30.80;29.70
80176;DHT22;69501;42.124;24.722;2023-08-01T08:12:30;30.80;29.70
80176;DHT22;69501;42.124;24.722;2023-08-01T08:14:56;30.80;29.60
80176;DHT22;69501;42.124;24.722;2023-08-01T08:17:22;30.90;29.50
80176;DHT22;69501;42.124;24.722;2023-08-01T08:19:47;30.90;28.90
80176;DHT22;69501;42.124;24.722;2023-08-01T08:22:13;30.90;29.00
80176;DHT22;69501;42.124;24.722;2023-08-01T08:24:39;30.90;29.10
80176;DHT22;71945;42.122;24.732;2023-08-01T08:27:05;31.00;29.20
80176;DHT22;71945;42.122;24.732;2023-08-01T08:29:31;31.00;29.20
80176;DHT22;71945;42.122;24.732;2023-08-01T08:31:57;31.10;29.00
80176;DHT22;71945;42.122;24.732;2023-08-01T08:34:23;31.10;28.90
80176;DHT22;71945;42.122;24.732;2023-08-01T08:36:49;31.20;28.50
80176;DHT22;71945;42.122;24.732;2023-08-01T08:39:21;31.20;28.40
80176;DHT22;71945;42.122;24.732;2023-08-01T08:41:48;31.30;28.50
80176;DHT22;71945;42.122;24.732;2023-08-01T08:44:17;31.30;28.60
80176;DHT22;71945;42.122;24.732;2023-08-01T08:46:44;31.40;28.80
80176;DHT22;71945;42.122;24.732;2023-08-01T08:49:11;31.40;28.80
80176;DHT22;71945;42.122;24.732;2023-08-01T08:51:37;31.50;28.80
80176;DHT22;71945;42.122;24.732;2023-08-01T08:54:07;31.50;28.90
80176;DHT22;71945;42.122;24.732;2023-08-01T08:56:34;31.60;28.70
80176;DHT22;71945;42.122;24.732;2023-08-01T08:59:00;31.60;28.50
80176;DHT22;71945;42.122;24.732;2023-08-01T09:01:27;31.70;28.50
80176;DHT22;71945;42.122;24.732;2023-08-01T09:03:55;31.70;28.20
80176;DHT22;71945;42.122;24.732;2023-08-01T09:06:28;31.80;28.20
80176;DHT22;71945;42.122;24.732;2023-08-01T09:09:13;31.80;28.00
80176;DHT22;71945;42.122;24.732;2023-08-01T09:11:52;31.80;27.80
80176;DHT22;71945;42.122;24.732;2023-08-01T09:14:18;31.90;28.00
80176;DHT22;71945;42.122;24.732;2023-08-01T09:16:45;31.90;28.40
80176;DHT22;71945;42.122;24.732;2023-08-01T09:22:22;32.00;27.70
80176;DHT22;71945;42.122;24.732;2023-08-01T09:24:52;32.00;27.70
80176;DHT22;71945;42.122;24.732;2023-08-01T09:27:20;32.10;28.10
80176;DHT22;71945;42.122;24.732;2023-08-01T09:29:46;32.20;28.00
80176;DHT22;71945;42.122;24.732;2023-08-01T09:32:13;32.20;28.20
80176;DHT22;71945;42.122;24.732;2023-08-01T09:34:42;32.20;27.60
80176;DHT22;71945;42.122;24.732;2023-08-01T09:37:08;32.20;27.80
80176;DHT22;71945;42.122;24.732;2023-08-01T09:39:34;32.40;28.00
80176;DHT22;71945;42.122;24.732;2023-08-01T09:42:01;32.50;27.70
80176;DHT22;71945;42.122;24.732;2023-08-01T09:44:35;32.60;27.50
80176;DHT22;71945;42.122;24.732;2023-08-01T09:47:03;32.70;27.50
80176;DHT22;71945;42.122;24.732;2023-08-01T09:49:30;32.90;27.30
80176;DHT22;71945;42.122;24.732;2023-08-01T09:51:56;33.00;27.60
80176;DHT22;71945;42.122;24.732;2023-08-01T09:54:23;33.10;27.30
80176;DHT22;71945;42.122;24.732;2023-08-01T09:56:51;33.20;27.20
80176;DHT22;71945;42.122;24.732;2023-08-01T09:59:25;33.30;27.30
80176;DHT22;71945;42.122;24.732;2023-08-01T10:01:52;33.40;27.10
80176;DHT22;71945;42.122;24.732;2023-08-01T10:04:21;33.50;27.10
80176;DHT22;71945;42.122;24.732;2023-08-01T10:06:54;33.60;27.50
80176;DHT22;71945;42.122;24.732;2023-08-01T10:09:21;33.70;27.90
80176;DHT22;71945;42.122;24.732;2023-08-01T10:11:48;33.80;27.70
80176;DHT22;71945;42.122;24.732;2023-08-01T10:14:16;33.80;27.10
80176;DHT22;71945;42.122;24.732;2023-08-01T10:16:42;33.90;26.10
80176;DHT22;71945;42.122;24.732;2023-08-01T10:19:17;34.10;26.40
80176;DHT22;71945;42.122;24.732;2023-08-01T10:21:47;34.10;26.90
80176;DHT22;71945;42.122;24.732;2023-08-01T10:24:14;34.20;26.50
80176;DHT22;71945;42.122;24.732;2023-08-01T10:26:41;34.30;25.50
80176;DHT22;71945;42.122;24.732;2023-08-01T10:29:09;34.30;25.40
80176;DHT22;71945;42.122;24.732;2023-08-01T10:31:35;34.40;25.50
80176;DHT22;71945;42.122;24.732;2023-08-01T10:34:13;34.50;25.70
80176;DHT22;71945;42.122;24.732;2023-08-01T10:36:41;34.60;25.80
80176;DHT22;71945;42.122;24.732;2023-08-01T10:39:07;34.70;25.30
80176;DHT22;71945;42.122;24.732;2023-08-01T10:41:34;34.80;25.40
80176;DHT22;71945;42.122;24.732;2023-08-01T10:44:11;34.90;25.10
80176;DHT22;71945;42.122;24.732;2023-08-01T10:46:54;35.00;26.00
80176;DHT22;71945;42.122;24.732;2023-08-01T10:49:32;35.00;24.90
80176;DHT22;71945;42.122;24.732;2023-08-01T10:51:58;35.10;25.80
80176;DHT22;71945;42.122;24.732;2023-08-01T10:54:25;35.20;25.00
80176;DHT22;71945;42.122;24.732;2023-08-01T10:56:57;35.20;24.90
80176;DHT22;71945;42.122;24.732;2023-08-01T10:59:27;35.30;25.00
80176;DHT22;71945;42.122;24.732;2023-08-01T11:01:58;35.40;24.20
80176;DHT22;71945;42.122;24.732;2023-08-01T11:04:24;35.40;24.20
80176;DHT22;71945;42.122;24.732;2023-08-01T11:06:52;35.40;24.90
80176;DHT22;71945;42.122;24.732;2023-08-01T11:09:19;35.40;25.40
80176;DHT22;71945;42.122;24.732;2023-08-01T11:11:45;35.50;26.30
80176;DHT22;71945;42.122;24.732;2023-08-01T11:14:12;35.60;25.50
80176;DHT22;71945;42.122;24.732;2023-08-01T11:16:39;35.70;25.20
80176;DHT22;71945;42.122;24.732;2023-08-01T11:19:05;35.80;25.80
80176;DHT22;71945;42.122;24.732;2023-08-01T11:21:33;35.90;26.20
80176;DHT22;71945;42.122;24.732;2023-08-01T11:24:06;36.00;25.90
80176;DHT22;71945;42.122;24.732;2023-08-01T11:26:32;36.10;26.40
80176;DHT22;71945;42.122;24.732;2023-08-01T11:29:04;36.20;26.20
80176;DHT22;71945;42.122;24.732;2023-08-01T11:31:30;36.40;26.50
80176;DHT22;71945;42.122;24.732;2023-08-01T11:33:59;36.60;25.90
80176;DHT22;71945;42.122;24.732;2023-08-01T11:36:28;36.60;25.80
80176;DHT22;71945;42.122;24.732;2023-08-01T11:38:59;36.80;26.20
80176;DHT22;71945;42.122;24.732;2023-08-01T11:41:29;36.90;26.00
80176;DHT22;71945;42.122;24.732;2023-08-01T11:43:55;37.10;24.90
80176;DHT22;71945;42.122;24.732;2023-08-01T11:46:31;37.20;25.70
80176;DHT22;71945;42.122;24.732;2023-08-01T11:48:58;37.30;25.30
80176;DHT22;71945;42.122;24.732;2023-08-01T11:51:25;37.50;24.60
80176;DHT22;71945;42.122;24.732;2023-08-01T11:54:01;37.60;24.90
80176;DHT22;71945;42.122;24.732;2023-08-01T11:56:27;37.80;23.90
80176;DHT22;71945;42.122;24.732;2023-08-01T11:58:53;37.90;23.30
80176;DHT22;71945;42.122;24.732;2023-08-01T12:01:19;38.10;24.30
80176;DHT22;71945;42.122;24.732;2023-08-01T12:03:54;38.20;24.20
80176;DHT22;71945;42.122;24.732;2023-08-01T12:06:22;38.40;23.30
80176;DHT22;71945;42.122;24.732;2023-08-01T12:08:52;38.50;23.40
80176;DHT22;71945;42.122;24.732;2023-08-01T12:11:23;38.60;22.90
80176;DHT22;71945;42.122;24.732;2023-08-01T12:14:14;38.80;22.70
80176;DHT22;71945;42.122;24.732;2023-08-01T12:16:42;38.90;22.90
80176;DHT22;71945;42.122;24.732;2023-08-01T12:19:10;39.00;22.40
80176;DHT22;71945;42.122;24.732;2023-08-01T12:21:36;39.10;22.00
80176;DHT22;71945;42.122;24.732;2023-08-01T12:24:02;39.30;21.60
80176;DHT22;71945;42.122;24.732;2023-08-01T12:26:28;39.40;20.90
80176;DHT22;71945;42.122;24.732;2023-08-01T12:28:54;39.60;21.10
80176;DHT22;71945;42.122;24.732;2023-08-01T12:31:21;39.70;21.30
80176;DHT22;71945;42.122;24.732;2023-08-01T12:33:48;39.80;21.50
80176;DHT22;71945;42.122;24.732;2023-08-01T12:36:16;39.90;20.20
80176;DHT22;71945;42.122;24.732;2023-08-01T12:38:41;40.00;19.60
80176;DHT22;71945;42.122;24.732;2023-08-01T12:41:07;40.20;20.00
80176;DHT22;71945;42.122;24.732;2023-08-01T12:43:33;40.30;19.40
80176;DHT22;71945;42.122;24.732;2023-08-01T12:45:59;40.40;19.20
80176;DHT22;71945;42.122;24.732;2023-08-01T12:48:25;40.50;19.20
80176;DHT22;71945;42.122;24.732;2023-08-01T12:50:51;40.50;18.90
80176;DHT22;71945;42.122;24.732;2023-08-01T12:53:18;40.70;18.90
80176;DHT22;71945;42.122;24.732;2023-08-01T12:55:45;40.70;18.60
80176;DHT22;71945;42.122;24.732;2023-08-01T12:58:11;40.70;18.00
80176;DHT22;71945;42.122;24.732;2023-08-01T13:00:37;40.70;18.70
80176;DHT22;71945;42.122;24.732;2023-08-01T13:03:06;40.70;19.00
80176;DHT22;71945;42.122;24.732;2023-08-01T13:05:35;40.60;19.10
80176;DHT22;71945;42.122;24.732;2023-08-01T13:08:00;40.60;18.70
80176;DHT22;71945;42.122;24.732;2023-08-01T13:10:29;40.60;18.00
80176;DHT22;71945;42.122;24.732;2023-08-01T13:12:55;40.50;17.90
80176;DHT22;71945;42.122;24.732;2023-08-01T13:15:20;40.50;17.90
80176;DHT22;71945;42.122;24.732;2023-08-01T13:17:48;40.50;18.00
80176;DHT22;71945;42.122;24.732;2023-08-01T13:20:17;40.50;17.80
80176;DHT22;71945;42.122;24.732;2023-08-01T13:22:46;40.30;17.70
80176;DHT22;71945;42.122;24.732;2023-08-01T13:25:15;40.00;17.90
80176;DHT22;71945;42.122;24.732;2023-08-01T13:27:41;40.00;17.80
80176;DHT22;71945;42.122;24.732;2023-08-01T13:30:08;40.20;17.60
80176;DHT22;71945;42.122;24.732;2023-08-01T13:32:34;40.50;17.50
80176;DHT22;71945;42.122;24.732;2023-08-01T13:35:00;40.70;17.30
80176;DHT22;71945;42.122;24.732;2023-08-01T13:37:26;40.80;16.90
80176;DHT22;71945;42.122;24.732;2023-08-01T13:39:53;40.90;16.70
80176;DHT22;71945;42.122;24.732;2023-08-01T13:42:19;41.00;16.50
80176;DHT22;71945;42.122;24.732;2023-08-01T13:44:45;41.20;16.50
80176;DHT22;71945;42.122;24.732;2023-08-01T13:47:10;41.20;16.30
80176;DHT22;71945;42.122;24.732;2023-08-01T13:49:36;41.20;16.40
80176;DHT22;71945;42.122;24.732;2023-08-01T13:52:03;41.00;16.50
80176;DHT22;71945;42.122;24.732;2023-08-01T13:54:31;40.90;16.60
80176;DHT22;71945;42.122;24.732;2023-08-01T13:56:57;40.80;17.70
80176;DHT22;71945;42.122;24.732;2023-08-01T13:59:23;40.60;16.90
80176;DHT22;71945;42.122;24.732;2023-08-01T14:01:49;40.50;16.80
80176;DHT22;71945;42.122;24.732;2023-08-01T14:04:17;40.30;17.00
80176;DHT22;71945;42.122;24.732;2023-08-01T14:06:43;40.20;17.00
80176;DHT22;71945;42.122;24.732;2023-08-01T14:09:09;40.20;17.20
80176;DHT22;71945;42.122;24.732;2023-08-01T14:11:36;40.20;17.10
80176;DHT22;71945;42.122;24.732;2023-08-01T14:14:01;40.10;17.30
80176;DHT22;71945;42.122;24.732;2023-08-01T14:16:28;40.10;17.30
80176;DHT22;71945;42.122;24.732;2023-08-01T14:18:54;40.10;17.40
80176;DHT22;71945;42.122;24.732;2023-08-01T14:21:19;39.90;18.40
80176;DHT22;71945;42.122;24.732;2023-08-01T14:23:45;39.80;17.90
80176;DHT22;71945;42.122;24.732;2023-08-01T14:26:11;39.80;17.70
80176;DHT22;71945;42.122;24.732;2023-08-01T14:28:36;39.80;17.60
80176;DHT22;71945;42.122;24.732;2023-08-01T14:31:03;39.80;17.60
80176;DHT22;71945;42.122;24.732;2023-08-01T14:33:30;39.80;17.60
80176;DHT22;71945;42.122;24.732;2023-08-01T14:35:56;39.80;17.50
80176;DHT22;71945;42.122;24.732;2023-08-01T14:38:22;39.80;17.50
80176;DHT22;71945;42.122;24.732;2023-08-01T14:40:48;39.90;17.50
80176;DHT22;71945;42.122;24.732;2023-08-01T14:43:13;39.90;17.50
80176;DHT22;71945;42.122;24.732;2023-08-01T14:45:40;39.90;17.20
80176;DHT22;71945;42.122;24.732;2023-08-01T14:48:08;39.80;17.20
80176;DHT22;71945;42.122;24.732;2023-08-01T14:50:34;39.90;17.30
80176;DHT22;71945;42.122;24.732;2023-08-01T14:53:00;39.90;17.40
80176;DHT22;71945;42.122;24.732;2023-08-01T14:55:28;40.00;17.50
80176;DHT22;71945;42.122;24.732;2023-08-01T14:57:54;39.90;17.40
80176;DHT22;71945;42.122;24.732;2023-08-01T15:00:20;39.90;17.50
80176;DHT22;71945;42.122;24.732;2023-08-01T15:02:46;39.90;17.60
80176;DHT22;71945;42.122;24.732;2023-08-01T15:05:13;39.80;17.70
80176;DHT22;71945;42.122;24.732;2023-08-01T15:07:39;39.80;17.70
80176;DHT22;71945;42.122;24.732;2023-08-01T15:10:05;39.80;18.00
80176;DHT22;71945;42.122;24.732;2023-08-01T15:12:31;39.70;17.80
80176;DHT22;71945;42.122;24.732;2023-08-01T15:14:57;39.70;17.80